sensor_id;sensor_type;location;lat;lon;timestamp;temperature;humidity
66184;DHT22;52989;48.796;9.806;2023-07-28T00:00:42;16.40;99.90
66184;DHT22;52989;48.796;9.806;2023-07-28T00:03:07;16.40;99.90
66184;DHT22;52989;48.796;9.806;2023-07-28T00:05:33;16.50;99.90
66184;DHT22;52989;48.796;9.806;2023-07-28T00:07:58;16.70;99.90
66184;DHT22;52989;48.796;9.806;2023-07-28T00:10:24;16.70;99.90
66184;DHT22;52989;48.796;9.806;2023-07-28T00:12:49;16.80;99.90
66184;DHT22;52989;48.796;9.806;2023-07-28T00:15:14;16.90;99.90
66184;DHT22;52989;48.796;9.806;2023-07-28T00:17:40;16.90;99.90
66184;DHT22;52989;48.796;9.806;2023-07-28T00:20:08;17.00;99.90
66184;DHT22;52989;48.796;9.806;2023-07-28T00:22:33;17.00;99.90
66184;DHT22;52989;48.796;9.806;2023-07-28T00:24:59;17.00;99.90
66184;DHT22;52989;48.796;9.806;2023-07-28T00:27:24;16.90;99.90
66184;DHT22;52989;48.796;9.806;2023-07-28T00:29:50;16.90;99.90
66184;DHT22;52989;48.796;9.806;2023-07-28T00:32:15;16.70;99.90
66184;DHT22;52989;48.796;9.806;2023-07-28T00:34:41;16.70;99.90
66184;DHT22;52989;48.796;9.806;2023-07-28T00:37:06;16.50;99.90
66184;DHT22;52989;48.796;9.806;2023-07-28T00:39:31;16.40;99.90
66184;DHT22;52989;48.796;9.806;2023-07-28T00:41:57;16.40;99.90
66184;DHT22;52989;48.796;9.806;2023-07-28T00:44:22;16.30;99.90
66184;DHT22;52989;48.796;9.806;2023-07-28T00:46:48;16.30;99.90
66184;DHT22;52989;48.796;9.806;2023-07-28T00:49:13;16.20;99.90
66184;DHT22;52989;48.796;9.806;2023-07-28T00:51:39;16.20;99.90
66184;DHT22;52989;48.796;9.806;2023-07-28T00:54:05;16.00;99.90
66184;DHT22;52989;48.796;9.806;2023-07-28T00:56:30;16.00;99.90
66184;DHT22;52989;48.796;9.806;2023-07-28T00:58:57;15.90;99.90
66184;DHT22;52989;48.796;9.806;2023-07-28T01:01:23;15.80;99.90
66184;DHT22;52989;48.796;9.806;2023-07-28T01:03:49;15.70;99.90
66184;DHT22;52989;48.796;9.806;2023-07-28T01:11:15;15.60;99.90
66184;DHT22;52989;48.796;9.806;2023-07-28T01:13:40;15.60;99.90
66184;DHT22;52989;48.796;9.806;2023-07-28T01:16:06;15.50;99.90
66184;DHT22;52989;48.796;9.806;2023-07-28T01:18:32;15.50;99.90
66184;DHT22;52989;48.796;9.806;2023-07-28T01:20:58;15.50;99.90
66184;DHT22;52989;48.796;9.806;2023-07-28T01:23:34;15.50;99.90
66184;DHT22;52989;48.796;9.806;2023-07-28T01:26:03;15.60;99.90
66184;DHT22;52989;48.796;9.806;2023-07-28T01:28:30;15.60;99.90
66184;DHT22;52989;48.796;9.806;2023-07-28T01:30:59;15.70;99.90
66184;DHT22;52989;48.796;9.806;2023-07-28T01:33:25;15.80;99.90
66184;DHT22;52989;48.796;9.806;2023-07-28T01:35:50;15.90;99.90
66184;DHT22;52989;48.796;9.806;2023-07-28T01:38:15;16.00;99.90
66184;DHT22;52989;48.796;9.806;2023-07-28T01:40:41;16.00;99.90
66184;DHT22;52989;48.796;9.806;2023-07-28T01:43:07;15.90;99.90
66184;DHT22;52989;48.796;9.806;2023-07-28T01:45:32;15.90;99.90
66184;DHT22;52989;48.796;9.806;2023-07-28T01:47:58;15.90;99.90
66184;DHT22;52989;48.796;9.806;2023-07-28T01:50:23;15.80;99.90
66184;DHT22;52989;48.796;9.806;2023-07-28T01:52:49;15.60;99.90
66184;DHT22;52989;48.796;9.806;2023-07-28T01:55:14;15.60;99.90
66184;DHT22;52989;48.796;9.806;2023-07-28T01:57:40;15.60;99.90
66184;DHT22;52989;48.796;9.806;2023-07-28T02:00:06;15.70;99.90
66184;DHT22;52989;48.796;9.806;2023-07-28T02:02:31;15.60;99.90
66184;DHT22;52989;48.796;9.806;2023-07-28T02:04:57;15.70;99.90
66184;DHT22;52989;48.796;9.806;2023-07-28T02:07:22;15.70;99.90
66184;DHT22;52989;48.796;9.806;2023-07-28T02:09:48;15.60;99.90
66184;DHT22;52989;48.796;9.806;2023-07-28T02:12:13;15.60;99.90
66184;DHT22;52989;48.796;9.806;2023-07-28T02:14:38;15.70;99.90
66184;DHT22;52989;48.796;9.806;2023-07-28T02:17:04;15.60;99.90
66184;DHT22;52989;48.796;9.806;2023-07-28T02:19:30;15.50;99.90
66184;DHT22;52989;48.796;9.806;2023-07-28T02:21:55;15.60;99.90
66184;DHT22;52989;48.796;9.806;2023-07-28T02:24:21;15.50;99.90
66184;DHT22;52989;48.796;9.806;2023-07-28T02:26:46;15.60;99.90
66184;DHT22;52989;48.796;9.806;2023-07-28T02:29:12;15.70;99.90
66184;DHT22;52989;48.796;9.806;2023-07-28T02:31:38;15.60;99.90
66184;DHT22;52989;48.796;9.806;2023-07-28T02:34:03;15.50;99.90
66184;DHT22;52989;48.796;9.806;2023-07-28T02:36:29;15.50;99.90
66184;DHT22;52989;48.796;9.806;2023-07-28T02:38:54;15.50;99.90
66184;DHT22;52989;48.796;9.806;2023-07-28T02:41:20;15.60;99.90
66184;DHT22;52989;48.796;9.806;2023-07-28T02:43:45;15.60;99.90
66184;DHT22;52989;48.796;9.806;2023-07-28T02:46:10;15.60;99.90
66184;DHT22;52989;48.796;9.806;2023-07-28T02:48:36;15.60;99.90
66184;DHT22;52989;48.796;9.806;2023-07-28T02:51:01;15.70;99.90
66184;DHT22;52989;48.796;9.806;2023-07-28T02:53:27;15.70;99.90
66184;DHT22;52989;48.796;9.806;2023-07-28T02:55:52;15.70;99.90
66184;DHT22;52989;48.796;9.806;2023-07-28T02:58:19;15.70;99.90
66184;DHT22;52989;48.796;9.806;2023-07-28T03:00:44;15.60;99.90
66184;DHT22;52989;48.796;9.806;2023-07-28T03:03:11;15.60;99.90
66184;DHT22;52989;48.796;9.806;2023-07-28T03:05:37;15.70;99.90
66184;DHT22;52989;48.796;9.806;2023-07-28T03:08:03;15.80;99.90
66184;DHT22;52989;48.796;9.806;2023-07-28T03:10:29;15.80;99.90
66184;DHT22;52989;48.796;9.806;2023-07-28T03:12:54;15.80;99.90
66184;DHT22;52989;48.796;9.806;2023-07-28T03:15:20;15.70;99.90
66184;DHT22;52989;48.796;9.806;2023-07-28T03:17:47;15.70;99.90
66184;DHT22;52989;48.796;9.806;2023-07-28T03:20:13;15.70;99.90
66184;DHT22;52989;48.796;9.806;2023-07-28T03:22:38;15.70;99.90
66184;DHT22;52989;48.796;9.806;2023-07-28T03:25:04;15.70;99.90
66184;DHT22;52989;48.796;9.806;2023-07-28T03:27:29;15.60;99.90
66184;DHT22;52989;48.796;9.806;2023-07-28T03:29:55;15.50;99.90
66184;DHT22;52989;48.796;9.806;2023-07-28T03:32:20;15.50;99.90
66184;DHT22;52989;48.796;9.806;2023-07-28T03:34:45;15.50;99.90
66184;DHT22;52989;48.796;9.806;2023-07-28T03:37:11;15.50;99.90
66184;DHT22;52989;48.796;9.806;2023-07-28T03:39:36;15.60;99.90
66184;DHT22;52989;48.796;9.806;2023-07-28T03:42:02;15.60;99.90
66184;DHT22;52989;48.796;9.806;2023-07-28T03:44:28;15.70;99.90
66184;DHT22;52989;48.796;9.806;2023-07-28T03:46:53;15.70;99.90
66184;DHT22;52989;48.796;9.806;2023-07-28T03:49:19;15.70;99.90
66184;DHT22;52989;48.796;9.806;2023-07-28T03:51:44;15.70;99.90
66184;DHT22;52989;48.796;9.806;2023-07-28T03:54:10;15.80;99.90
66184;DHT22;52989;48.796;9.806;2023-07-28T03:56:35;15.80;99.90
66184;DHT22;52989;48.796;9.806;2023-07-28T03:59:01;16.00;99.90
66184;DHT22;52989;48.796;9.806;2023-07-28T04:01:26;16.10;99.90
66184;DHT22;52989;48.796;9.806;2023-07-28T04:03:52;16.20;99.90
66184;DHT22;52989;48.796;9.806;2023-07-28T04:06:17;16.20;99.90
66184;DHT22;52989;48.796;9.806;2023-07-28T04:08:44;16.30;99.90
66184;DHT22;52989;48.796;9.806;2023-07-28T04:11:10;16.30;99.90
66184;DHT22;52989;48.796;9.806;2023-07-28T04:13:35;16.40;99.90
66184;DHT22;52989;48.796;9.806;2023-07-28T04:16:01;16.40;99.90
66184;DHT22;52989;48.796;9.806;2023-07-28T04:18:27;16.30;99.90
66184;DHT22;52989;48.796;9.806;2023-07-28T04:20:52;16.30;99.90
66184;DHT22;52989;48.796;9.806;2023-07-28T04:23:18;16.40;99.90
66184;DHT22;52989;48.796;9.806;2023-07-28T04:25:44;16.40;99.90
66184;DHT22;52989;48.796;9.806;2023-07-28T04:28:09;16.40;99.90
66184;DHT22;52989;48.796;9.806;2023-07-28T04:30:34;16.30;99.90
66184;DHT22;52989;48.796;9.806;2023-07-28T04:33:00;16.30;99.90
66184;DHT22;52989;48.796;9.806;2023-07-28T04:35:26;16.30;99.90
66184;DHT22;52989;48.796;9.806;2023-07-28T04:37:51;16.10;99.90
66184;DHT22;52989;48.796;9.806;2023-07-28T04:40:16;16.10;99.90
66184;DHT22;52989;48.796;9.806;2023-07-28T04:42:42;16.10;99.90
66184;DHT22;52989;48.796;9.806;2023-07-28T04:45:07;16.30;99.90
66184;DHT22;52989;48.796;9.806;2023-07-28T04:47:34;16.30;99.90
66184;DHT22;52989;48.796;9.806;2023-07-28T04:49:59;16.40;99.90
66184;DHT22;52989;48.796;9.806;2023-07-28T04:52:25;16.40;99.90
66184;DHT22;52989;48.796;9.806;2023-07-28T04:54:50;16.30;99.90
66184;DHT22;52989;48.796;9.806;2023-07-28T04:57:15;16.30;99.90
66184;DHT22;52989;48.796;9.806;2023-07-28T04:59:44;16.30;99.90
66184;DHT22;52989;48.796;9.806;2023-07-28T05:02:10;16.30;99.90
66184;DHT22;52989;48.796;9.806;2023-07-28T05:04:35;16.50;99.90
66184;DHT22;52989;48.796;9.806;2023-07-28T05:07:02;16.50;99.90
66184;DHT22;52989;48.796;9.806;2023-07-28T05:09:28;16.60;99.90
66184;DHT22;52989;48.796;9.806;2023-07-28T05:11:54;16.70;99.90
66184;DHT22;52989;48.796;9.806;2023-07-28T05:14:19;16.70;99.90
66184;DHT22;52989;48.796;9.806;2023-07-28T05:16:45;16.80;99.90
66184;DHT22;52989;48.796;9.806;2023-07-28T05:19:12;16.70;99.90
66184;DHT22;52989;48.796;9.806;2023-07-28T05:21:37;16.80;99.90
66184;DHT22;52989;48.796;9.806;2023-07-28T05:24:03;16.70;99.90
66184;DHT22;52989;48.796;9.806;2023-07-28T05:26:28;16.60;99.90
66184;DHT22;52989;48.796;9.806;2023-07-28T05:28:54;16.60;99.90
66184;DHT22;52989;48.796;9.806;2023-07-28T05:31:19;16.50;99.90
66184;DHT22;52989;48.796;9.806;2023-07-28T05:33:44;16.50;99.90
66184;DHT22;52989;48.796;9.806;2023-07-28T05:36:10;16.40;99.90
66184;DHT22;52989;48.796;9.806;2023-07-28T05:38:35;16.30;99.90
66184;DHT22;52989;48.796;9.806;2023-07-28T05:41:02;16.50;99.90
66184;DHT22;52989;48.796;9.806;2023-07-28T05:43:28;16.40;99.90
66184;DHT22;52989;48.796;9.806;2023-07-28T05:45:55;16.30;99.90
66184;DHT22;52989;48.796;9.806;2023-07-28T05:48:21;16.50;99.90
66184;DHT22;52989;48.796;9.806;2023-07-28T05:50:46;16.50;99.90
66184;DHT22;52989;48.796;9.806;2023-07-28T05:53:12;16.50;99.90
66184;DHT22;52989;48.796;9.806;2023-07-28T05:55:39;16.40;99.90
66184;DHT22;52989;48.796;9.806;2023-07-28T05:58:04;16.50;99.90
66184;DHT22;52989;48.796;9.806;2023-07-28T06:00:30;16.50;99.90
66184;DHT22;52989;48.796;9.806;2023-07-28T06:02:56;16.50;99.90
66184;DHT22;52989;48.796;9.806;2023-07-28T06:05:22;16.50;99.90
66184;DHT22;52989;48.796;9.806;2023-07-28T06:07:48;16.50;99.90
66184;DHT22;52989;48.796;9.806;2023-07-28T06:10:13;16.70;99.90
66184;DHT22;52989;48.796;9.806;2023-07-28T06:12:39;16.90;99.90
66184;DHT22;52989;48.796;9.806;2023-07-28T06:15:04;16.90;99.90
66184;DHT22;52989;48.796;9.806;2023-07-28T06:17:30;16.80;99.90
66184;DHT22;52989;48.796;9.806;2023-07-28T06:19:55;16.80;99.90
66184;DHT22;52989;48.796;9.806;2023-07-28T06:22:21;16.80;99.90
66184;DHT22;52989;48.796;9.806;2023-07-28T06:24:46;17.00;99.90
66184;DHT22;52989;48.796;9.806;2023-07-28T06:27:12;17.40;99.90
66184;DHT22;52989;48.796;9.806;2023-07-28T06:29:37;17.50;99.90
66184;DHT22;52989;48.796;9.806;2023-07-28T06:32:03;17.50;99.90
66184;DHT22;52989;48.796;9.806;2023-07-28T06:34:28;17.20;99.90
66184;DHT22;52989;48.796;9.806;2023-07-28T06:36:54;17.20;99.90
66184;DHT22;52989;48.796;9.806;2023-07-28T06:39:20;17.20;99.90
66184;DHT22;52989;48.796;9.806;2023-07-28T06:41:45;17.20;99.90
66184;DHT22;52989;48.796;9.806;2023-07-28T06:44:11;17.30;99.90
66184;DHT22;52989;48.796;9.806;2023-07-28T06:46:37;17.30;99.90
66184;DHT22;52989;48.796;9.806;2023-07-28T06:49:03;17.30;99.90
66184;DHT22;52989;48.796;9.806;2023-07-28T06:51:29;17.30;99.90
66184;DHT22;52989;48.796;9.806;2023-07-28T06:53:54;17.40;99.90
66184;DHT22;52989;48.796;9.806;2023-07-28T06:56:20;17.60;99.90
66184;DHT22;52989;48.796;9.806;2023-07-28T06:58:45;17.80;99.90
66184;DHT22;52989;48.796;9.806;2023-07-28T07:01:11;17.70;99.90
66184;DHT22;52989;48.796;9.806;2023-07-28T07:03:37;17.70;99.90
66184;DHT22;52989;48.796;9.806;2023-07-28T07:06:02;17.80;99.90
66184;DHT22;52989;48.796;9.806;2023-07-28T07:08:28;17.80;99.90
66184;DHT22;52989;48.796;9.806;2023-07-28T07:10:53;17.90;99.90
66184;DHT22;52989;48.796;9.806;2023-07-28T07:13:19;17.90;99.90
66184;DHT22;52989;48.796;9.806;2023-07-28T07:15:45;18.00;99.90
66184;DHT22;52989;48.796;9.806;2023-07-28T07:18:10;18.10;99.90
66184;DHT22;52989;48.796;9.806;2023-07-28T07:20:36;18.00;99.90
66184;DHT22;52989;48.796;9.806;2023-07-28T07:23:03;18.20;99.90
66184;DHT22;52989;48.796;9.806;2023-07-28T07:25:29;18.40;99.90
66184;DHT22;52989;48.796;9.806;2023-07-28T07:27:54;18.30;99.90
66184;DHT22;52989;48.796;9.806;2023-07-28T07:30:20;18.10;99.90
66184;DHT22;52989;48.796;9.806;2023-07-28T07:32:45;17.90;99.90
66184;DHT22;52989;48.796;9.806;2023-07-28T07:35:10;17.80;99.90
66184;DHT22;52989;48.796;9.806;2023-07-28T07:37:36;17.80;99.90
66184;DHT22;52989;48.796;9.806;2023-07-28T07:40:02;17.80;99.90
66184;DHT22;52989;48.796;9.806;2023-07-28T07:42:30;17.90;99.90
66184;DHT22;52989;48.796;9.806;2023-07-28T07:45:06;18.10;99.90
66184;DHT22;52989;48.796;9.806;2023-07-28T07:47:32;18.20;99.90
66184;DHT22;52989;48.796;9.806;2023-07-28T07:49:58;18.20;99.90
66184;DHT22;52989;48.796;9.806;2023-07-28T07:52:23;18.40;99.90
66184;DHT22;52989;48.796;9.806;2023-07-28T07:54:48;18.60;99.90
66184;DHT22;52989;48.796;9.806;2023-07-28T07:57:14;18.70;99.90
66184;DHT22;52989;48.796;9.806;2023-07-28T07:59:39;19.10;99.90
66184;DHT22;52989;48.796;9.806;2023-07-28T08:02:05;19.30;99.90
66184;DHT22;52989;48.796;9.806;2023-07-28T08:04:31;19.20;99.90
66184;DHT22;52989;48.796;9.806;2023-07-28T08:06:56;19.30;99.90
66184;DHT22;52989;48.796;9.806;2023-07-28T08:09:22;19.60;99.90
66184;DHT22;52989;48.796;9.806;2023-07-28T08:11:47;19.70;99.90
66184;DHT22;52989;48.796;9.806;2023-07-28T08:14:13;19.60;99.90
66184;DHT22;52989;48.796;9.806;2023-07-28T08:16:39;19.60;99.90
66184;DHT22;52989;48.796;9.806;2023-07-28T08:19:04;19.90;99.90
66184;DHT22;52989;48.796;9.806;2023-07-28T08:21:30;20.30;99.90
66184;DHT22;52989;48.796;9.806;2023-07-28T08:24:02;20.70;99.90
66184;DHT22;52989;48.796;9.806;2023-07-28T08:26:27;20.70;99.90
66184;DHT22;52989;48.796;9.806;2023-07-28T08:28:53;20.80;99.90
66184;DHT22;52989;48.796;9.806;2023-07-28T08:31:18;20.50;99.90
66184;DHT22;52989;48.796;9.806;2023-07-28T08:33:44;20.40;99.90
66184;DHT22;52989;48.796;9.806;2023-07-28T08:36:09;20.50;99.90
66184;DHT22;52989;48.796;9.806;2023-07-28T08:38:35;20.20;99.90
66184;DHT22;52989;48.796;9.806;2023-07-28T08:41:00;20.00;99.90
66184;DHT22;52989;48.796;9.806;2023-07-28T08:43:26;19.70;99.90
66184;DHT22;52989;48.796;9.806;2023-07-28T08:45:52;19.60;99.90
66184;DHT22;52989;48.796;9.806;2023-07-28T08:48:18;19.60;99.90
66184;DHT22;52989;48.796;9.806;2023-07-28T08:50:44;19.30;99.90
66184;DHT22;52989;48.796;9.806;2023-07-28T08:53:09;19.10;99.90
66184;DHT22;52989;48.796;9.806;2023-07-28T08:55:35;19.10;99.90
66184;DHT22;52989;48.796;9.806;2023-07-28T08:58:20;19.00;99.90
66184;DHT22;52989;48.796;9.806;2023-07-28T09:00:49;19.10;99.90
66184;DHT22;52989;48.796;9.806;2023-07-28T09:03:15;19.30;99.90
66184;DHT22;52989;48.796;9.806;2023-07-28T09:05:42;19.20;99.90
66184;DHT22;52989;48.796;9.806;2023-07-28T09:08:07;19.40;99.90
66184;DHT22;52989;48.796;9.806;2023-07-28T09:13:11;20.00;99.90
66184;DHT22;52989;48.796;9.806;2023-07-28T09:15:39;20.20;99.90
66184;DHT22;52989;48.796;9.806;2023-07-28T09:18:12;20.40;99.90
66184;DHT22;52989;48.796;9.806;2023-07-28T09:20:40;20.50;99.90
66184;DHT22;52989;48.796;9.806;2023-07-28T09:23:07;20.10;99.90
66184;DHT22;52989;48.796;9.806;2023-07-28T09:25:33;20.20;99.90
66184;DHT22;52989;48.796;9.806;2023-07-28T09:27:59;20.30;99.90
66184;DHT22;52989;48.796;9.806;2023-07-28T09:30:25;20.30;99.90
66184;DHT22;52989;48.796;9.806;2023-07-28T09:32:52;20.30;99.90
66184;DHT22;52989;48.796;9.806;2023-07-28T09:35:17;20.10;99.90
66184;DHT22;52989;48.796;9.806;2023-07-28T09:37:44;20.30;99.90
66184;DHT22;52989;48.796;9.806;2023-07-28T09:40:10;20.20;99.90
66184;DHT22;52989;48.796;9.806;2023-07-28T09:42:40;20.40;99.90
66184;DHT22;52989;48.796;9.806;2023-07-28T09:45:06;20.30;99.90
66184;DHT22;52989;48.796;9.806;2023-07-28T09:47:36;20.60;99.90
66184;DHT22;52989;48.796;9.806;2023-07-28T09:50:03;21.10;99.90
66184;DHT22;52989;48.796;9.806;2023-07-28T09:52:31;21.80;99.90
66184;DHT22;52989;48.796;9.806;2023-07-28T09:54:58;22.00;99.90
66184;DHT22;52989;48.796;9.806;2023-07-28T09:57:25;22.00;99.90
66184;DHT22;52989;48.796;9.806;2023-07-28T09:59:52;22.10;99.90
66184;DHT22;52989;48.796;9.806;2023-07-28T10:02:19;22.20;99.90
66184;DHT22;52989;48.796;9.806;2023-07-28T10:04:45;22.40;99.90
66184;DHT22;52989;48.796;9.806;2023-07-28T10:07:10;22.50;99.90
66184;DHT22;52989;48.796;9.806;2023-07-28T10:09:36;22.40;99.90
66184;DHT22;52989;48.796;9.806;2023-07-28T10:12:03;22.40;99.90
66184;DHT22;52989;48.796;9.806;2023-07-28T10:14:29;22.30;99.90
66184;DHT22;52989;48.796;9.806;2023-07-28T10:16:57;22.50;99.90
66184;DHT22;52989;48.796;9.806;2023-07-28T10:19:24;22.20;99.90
66184;DHT22;52989;48.796;9.806;2023-07-28T10:21:50;22.20;99.90
66184;DHT22;52989;48.796;9.806;2023-07-28T10:24:41;22.60;99.90
66184;DHT22;52989;48.796;9.806;2023-07-28T10:27:09;23.10;99.90
66184;DHT22;52989;48.796;9.806;2023-07-28T10:29:36;22.20;99.90
66184;DHT22;52989;48.796;9.806;2023-07-28T10:32:02;22.70;99.90
66184;DHT22;52989;48.796;9.806;2023-07-28T10:34:28;22.90;99.90
66184;DHT22;52989;48.796;9.806;2023-07-28T10:36:57;22.90;99.60
66184;DHT22;52989;48.796;9.806;2023-07-28T10:39:24;22.60;99.90
66184;DHT22;52989;48.796;9.806;2023-07-28T10:44:27;22.60;99.90
66184;DHT22;52989;48.796;9.806;2023-07-28T10:46:53;22.90;99.70
66184;DHT22;52989;48.796;9.806;2023-07-28T10:49:19;23.10;99.90
66184;DHT22;52989;48.796;9.806;2023-07-28T10:51:45;23.60;98.90
66184;DHT22;52989;48.796;9.806;2023-07-28T10:54:11;23.40;98.70
66184;DHT22;52989;48.796;9.806;2023-07-28T10:56:41;23.70;99.60
66184;DHT22;52989;48.796;9.806;2023-07-28T10:59:06;23.90;99.00
66184;DHT22;52989;48.796;9.806;2023-07-28T11:01:35;23.70;99.20
66184;DHT22;52989;48.796;9.806;2023-07-28T11:04:07;23.50;98.40
66184;DHT22;52989;48.796;9.806;2023-07-28T11:06:34;23.90;98.90
66184;DHT22;52989;48.796;9.806;2023-07-28T11:08:59;23.80;98.80
66184;DHT22;52989;48.796;9.806;2023-07-28T11:11:25;23.90;97.90
66184;DHT22;52989;48.796;9.806;2023-07-28T11:13:51;24.20;97.00
66184;DHT22;52989;48.796;9.806;2023-07-28T11:16:16;24.90;97.80
66184;DHT22;52989;48.796;9.806;2023-07-28T11:18:42;24.90;96.70
66184;DHT22;52989;48.796;9.806;2023-07-28T11:21:08;25.10;96.30
66184;DHT22;52989;48.796;9.806;2023-07-28T11:23:33;24.80;96.30
66184;DHT22;52989;48.796;9.806;2023-07-28T11:25:59;25.50;96.80
66184;DHT22;52989;48.796;9.806;2023-07-28T11:28:25;24.90;95.80
66184;DHT22;52989;48.796;9.806;2023-07-28T11:30:50;24.90;96.70
66184;DHT22;52989;48.796;9.806;2023-07-28T11:33:16;24.90;96.10
66184;DHT22;52989;48.796;9.806;2023-07-28T11:35:45;24.60;96.30
66184;DHT22;52989;48.796;9.806;2023-07-28T11:38:10;24.30;96.10
66184;DHT22;52989;48.796;9.806;2023-07-28T11:40:36;24.00;96.20
66184;DHT22;52989;48.796;9.806;2023-07-28T11:43:02;23.80;96.70
66184;DHT22;52989;48.796;9.806;2023-07-28T11:45:29;23.70;97.50
66184;DHT22;52989;48.796;9.806;2023-07-28T11:50:26;23.30;97.10
66184;DHT22;52989;48.796;9.806;2023-07-28T11:52:52;23.80;96.70
66184;DHT22;52989;48.796;9.806;2023-07-28T11:55:18;24.00;96.40
66184;DHT22;52989;48.796;9.806;2023-07-28T11:57:43;23.90;95.90
66184;DHT22;52989;48.796;9.806;2023-07-28T12:00:09;23.70;96.20
66184;DHT22;52989;48.796;9.806;2023-07-28T12:02:35;23.90;96.60
66184;DHT22;52989;48.796;9.806;2023-07-28T12:05:01;23.80;96.30
66184;DHT22;52989;48.796;9.806;2023-07-28T12:07:30;23.90;97.10
66184;DHT22;52989;48.796;9.806;2023-07-28T12:09:56;23.70;96.80
66184;DHT22;52989;48.796;9.806;2023-07-28T12:12:28;23.80;96.80
66184;DHT22;52989;48.796;9.806;2023-07-28T12:14:54;24.00;96.60
66184;DHT22;52989;48.796;9.806;2023-07-28T12:17:21;23.70;96.50
66184;DHT22;52989;48.796;9.806;2023-07-28T12:19:57;23.80;96.20
66184;DHT22;52989;48.796;9.806;2023-07-28T12:22:23;24.00;95.90
66184;DHT22;52989;48.796;9.806;2023-07-28T12:24:48;24.10;95.60
66184;DHT22;52989;48.796;9.806;2023-07-28T12:27:14;23.80;95.40
66184;DHT22;52989;48.796;9.806;2023-07-28T12:29:41;23.50;95.90
66184;DHT22;52989;48.796;9.806;2023-07-28T12:32:06;23.50;96.40
66184;DHT22;52989;48.796;9.806;2023-07-28T12:34:32;23.30;96.80
66184;DHT22;52989;48.796;9.806;2023-07-28T12:36:58;23.10;96.00
66184;DHT22;52989;48.796;9.806;2023-07-28T12:39:24;23.00;96.70
66184;DHT22;52989;48.796;9.806;2023-07-28T12:41:49;23.10;97.10
66184;DHT22;52989;48.796;9.806;2023-07-28T12:44:18;23.10;96.90
66184;DHT22;52989;48.796;9.806;2023-07-28T12:46:44;23.00;96.90
66184;DHT22;52989;48.796;9.806;2023-07-28T12:49:09;23.00;97.30
66184;DHT22;52989;48.796;9.806;2023-07-28T12:51:35;23.10;97.10
66184;DHT22;52989;48.796;9.806;2023-07-28T12:54:01;23.10;96.50
66184;DHT22;52989;48.796;9.806;2023-07-28T12:56:26;23.10;96.70
66184;DHT22;52989;48.796;9.806;2023-07-28T12:58:51;23.10;96.50
66184;DHT22;52989;48.796;9.806;2023-07-28T13:01:17;23.20;96.90
66184;DHT22;52989;48.796;9.806;2023-07-28T13:03:42;23.30;97.50
66184;DHT22;52989;48.796;9.806;2023-07-28T13:06:08;23.30;96.70
66184;DHT22;52989;48.796;9.806;2023-07-28T13:08:33;23.30;97.10
66184;DHT22;52989;48.796;9.806;2023-07-28T13:10:59;23.30;97.70
66184;DHT22;52989;48.796;9.806;2023-07-28T13:13:24;23.30;98.10
66184;DHT22;52989;48.796;9.806;2023-07-28T13:15:50;23.00;97.70
66184;DHT22;52989;48.796;9.806;2023-07-28T13:18:15;23.10;98.30
66184;DHT22;52989;48.796;9.806;2023-07-28T13:20:41;23.10;97.30
66184;DHT22;52989;48.796;9.806;2023-07-28T13:23:06;23.10;98.00
66184;DHT22;52989;48.796;9.806;2023-07-28T13:25:32;23.30;98.30
66184;DHT22;52989;48.796;9.806;2023-07-28T13:27:57;23.30;97.70
66184;DHT22;52989;48.796;9.806;2023-07-28T13:30:23;22.80;98.80
66184;DHT22;52989;48.796;9.806;2023-07-28T13:32:48;22.80;99.90
66184;DHT22;52989;48.796;9.806;2023-07-28T13:35:14;22.20;99.90
66184;DHT22;52989;48.796;9.806;2023-07-28T13:37:40;22.40;99.90
66184;DHT22;52989;48.796;9.806;2023-07-28T13:40:05;22.40;99.90
66184;DHT22;52989;48.796;9.806;2023-07-28T13:42:31;22.30;99.90
66184;DHT22;52989;48.796;9.806;2023-07-28T13:44:56;22.20;99.90
66184;DHT22;52989;48.796;9.806;2023-07-28T13:47:22;22.10;99.90
66184;DHT22;52989;48.796;9.806;2023-07-28T13:49:48;21.90;99.90
66184;DHT22;52989;48.796;9.806;2023-07-28T13:52:13;21.70;99.90
66184;DHT22;52989;48.796;9.806;2023-07-28T13:54:39;21.40;99.90
66184;DHT22;52989;48.796;9.806;2023-07-28T13:57:04;21.20;99.90
66184;DHT22;52989;48.796;9.806;2023-07-28T13:59:30;21.10;99.90
66184;DHT22;52989;48.796;9.806;2023-07-28T14:01:55;20.90;99.90
66184;DHT22;52989;48.796;9.806;2023-07-28T14:04:21;21.00;99.90
66184;DHT22;52989;48.796;9.806;2023-07-28T14:06:46;20.90;99.90
66184;DHT22;52989;48.796;9.806;2023-07-28T14:09:12;20.70;99.90
66184;DHT22;52989;48.796;9.806;2023-07-28T14:11:38;20.60;99.90
66184;DHT22;52989;48.796;9.806;2023-07-28T14:14:03;20.60;99.90
66184;DHT22;52989;48.796;9.806;2023-07-28T14:16:29;20.30;99.90
66184;DHT22;52989;48.796;9.806;2023-07-28T14:18:55;20.20;99.90
66184;DHT22;52989;48.796;9.806;2023-07-28T14:21:20;20.10;99.90
66184;DHT22;52989;48.796;9.806;2023-07-28T14:23:46;20.10;99.90
66184;DHT22;52989;48.796;9.806;2023-07-28T14:26:11;20.30;99.90
66184;DHT22;52989;48.796;9.806;2023-07-28T14:28:37;20.20;99.90
66184;DHT22;52989;48.796;9.806;2023-07-28T14:31:02;20.20;99.90
66184;DHT22;52989;48.796;9.806;2023-07-28T14:33:28;20.20;99.90
66184;DHT22;52989;48.796;9.806;2023-07-28T14:35:53;20.30;99.90
66184;DHT22;52989;48.796;9.806;2023-07-28T14:38:19;20.50;99.90
66184;DHT22;52989;48.796;9.806;2023-07-28T14:40:44;20.50;99.90
66184;DHT22;52989;48.796;9.806;2023-07-28T14:43:14;20.60;99.90
66184;DHT22;52989;48.796;9.806;2023-07-28T14:45:39;20.50;99.90
66184;DHT22;52989;48.796;9.806;2023-07-28T14:48:05;20.50;99.90
66184;DHT22;52989;48.796;9.806;2023-07-28T14:50:30;20.40;99.90
66184;DHT22;52989;48.796;9.806;2023-07-28T14:52:59;20.40;99.90
66184;DHT22;52989;48.796;9.806;2023-07-28T14:55:25;20.20;99.90
66184;DHT22;52989;48.796;9.806;2023-07-28T14:57:51;20.20;99.90
66184;DHT22;52989;48.796;9.806;2023-07-28T15:00:17;20.30;99.90
66184;DHT22;52989;48.796;9.806;2023-07-28T15:02:42;20.40;99.90
66184;DHT22;52989;48.796;9.806;2023-07-28T15:05:08;20.20;99.90
66184;DHT22;52989;48.796;9.806;2023-07-28T15:07:34;20.00;99.90
66184;DHT22;52989;48.796;9.806;2023-07-28T15:10:00;19.90;99.90
66184;DHT22;52989;48.796;9.806;2023-07-28T15:12:26;19.90;99.90
66184;DHT22;52989;48.796;9.806;2023-07-28T15:14:51;19.90;99.90
66184;DHT22;52989;48.796;9.806;2023-07-28T15:17:17;19.80;99.90
66184;DHT22;52989;48.796;9.806;2023-07-28T15:19:42;19.70;99.90
66184;DHT22;52989;48.796;9.806;2023-07-28T15:22:08;19.70;99.90
66184;DHT22;52989;48.796;9.806;2023-07-28T15:24:33;19.70;99.90
66184;DHT22;52989;48.796;9.806;2023-07-28T15:26:59;19.70;99.90
66184;DHT22;52989;48.796;9.806;2023-07-28T15:29:24;19.70;99.90
66184;DHT22;52989;48.796;9.806;2023-07-28T15:31:50;19.70;99.90
66184;DHT22;52989;48.796;9.806;2023-07-28T15:34:16;19.90;99.90